Terminal Aerodrome Forecast
Issued by NWS

Home | Current Version | Previous Version | Text Only | Print | Product List | Glossary On
Versions: 1 2 3 4 5 6 7 8 9 10 11 12 13 14 15
000
FTUS43 KIWX 072337
TAFSBN
TAF
KSBN 072337Z 0800/0824 34017G23KT P6SM SCT250
     FM080200 36005KT P6SM SCT250
     FM081400 09007KT P6SM SCT060 BKN100=

USA.gov is the U.S. government's official web portal to all federal, state and local government web resources and services.